Flight Track Log - Related Links

Times and Time Zones

All times are in EST time to prevent confusion due to time zone crossing. See the UAL681 flight status page for this flight to view local times or setup timezone preferences in your user account.

Time Position Orientation Groundspeed Altitude Reporting Facility
EST Latitude Longitude Course Direction KTS MPH feet Rate Location/Type
Thu 07:29:00 PM 42.1333 -88.6871 270° West  Level FlightAware Approximate
Thu 07:30:00 PM 42.1500 -88.8189 270° West  Level FlightAware Approximate
Thu 07:31:00 PM 42.1501 -88.9545 270° West  Level FlightAware Approximate
Thu 07:32:00 PM 42.1501 -89.0849 270° West  Level FlightAware Approximate
Thu 07:32:46 PM 42.1202 -88.9130 270° West 341 392 27,100  Level FlightAware ADS-B (CYQU)
Thu 07:33:38 PM 42.1164 -89.0260 267° West 342 394 29,100 2,069 Climbing FlightAware ADS-B (CYQU)
Thu 07:34:13 PM 42.1144 -89.0997 268° West 347 399 30,100 1,792 Climbing FlightAware ADS-B
Thu 07:34:55 PM 42.1117 -89.1919 268° West 350 403 31,400 1,760 Climbing FlightAware ADS-B (CYQU)
Thu 07:35:28 PM 42.1094 -89.2637 268° West 350 403 32,300 1,800 Climbing FlightAware ADS-B (CYQU)
Thu 07:36:15 PM 42.1060 -89.3646 267° West 346 398 33,800 1,159 Climbing FlightAware ADS-B
Thu 07:36:56 PM 42.1032 -89.4526 268° West 355 409 34,000 146 Climbing FlightAware ADS-B
Thu 07:37:37 PM 42.1002 -89.5446 268° West 360 414 34,000  Level FlightAware ADS-B (CYQU)
Thu 07:38:07 PM 42.0979 -89.6091 267° West 354 407 34,000  Level FlightAware ADS-B
Thu 07:38:46 PM 42.0950 -89.6956 267° West 350 403 34,000  Level FlightAware ADS-B
Thu 07:39:28 PM 42.0917 -89.7867 267° West 349 402 34,000  Level FlightAware ADS-B
Thu 07:40:06 PM 42.0888 -89.8696 267° West 350 403 34,000  Level FlightAware ADS-B
Thu 07:40:38 PM 42.0862 -89.9386 267° West 349 402 34,000  Level FlightAware ADS-B (CYQU)
Thu 07:41:08 PM 42.0839 -90.0032 267° West 349 402 34,000  Level FlightAware ADS-B
Thu 07:41:46 PM 42.0806 -90.0876 267° West 349 402 34,000  Level FlightAware ADS-B (CYQU)
Thu 07:42:19 PM 42.0778 -90.1590 267° West 348 400 34,000 762 Level FlightAware ADS-B (CYQU)
Thu 07:42:49 PM 42.0756 -90.2152 267° West 351 404 34,800 1,000 Climbing FlightAware ADS-B (CYQU)
Thu 07:43:31 PM 42.0718 -90.3118 267° West 358 412 35,200 750 Climbing FlightAware ADS-B
Thu 07:44:09 PM 42.0682 -90.3997 267° West 363 418 35,800 1,130 Climbing FlightAware ADS-B
Thu 07:44:40 PM 42.0666 -90.4376 267° West 363 418 36,500 1,180 Climbing FlightAware ADS-B (CYQU)
Thu 07:45:10 PM 42.0626 -90.5318 267° West 361 415 37,000 1,075 Climbing FlightAware ADS-B
Thu 07:45:47 PM 42.0589 -90.6195 267° West 358 412 37,700 706 Climbing FlightAware ADS-B (CYQU)
Thu 07:46:35 PM 42.0610 -90.5702 87° East 360 414 38,000 65 Climbing FlightAware ADS-B
Thu 07:50:22 PM 42.0325 -91.2003 267° West 357 411 38,000  Level FlightAware ADS-B (LPVM)
Thu 07:51:03 PM 42.0267 -91.3197 266° West 355 409 38,000  Level FlightAware ADS-B (LPVM)
Thu 07:51:43 PM 42.0235 -91.3836 266° West 355 409 38,000  Level FlightAware ADS-B (LPVM)
Thu 07:52:22 PM 42.0182 -91.4867 266° West 355 409 38,000  Level FlightAware ADS-B (LPVM)
Thu 07:53:02 PM 42.0135 -91.5778 266° West 357 411 38,000  Level FlightAware ADS-B (LPVM)
Thu 07:53:34 PM 42.0101 -91.6462 266° West 357 411 38,000  Level FlightAware ADS-B (LPVM)
Thu 07:54:06 PM 42.0063 -91.7181 266° West 356 410 38,000  Level FlightAware ADS-B (LPVM)
Thu 07:54:48 PM 42.0014 -91.8098 266° West 355 409 38,000  Level FlightAware ADS-B (LPVM)
Thu 07:55:27 PM 41.9968 -91.8962 266° West 354 407 38,000  Level FlightAware ADS-B (LPVM)
Thu 07:56:03 PM 41.9924 -91.9761 266° West 355 409 38,000  Level FlightAware ADS-B (LPVM)
Thu 07:57:03 PM 41.9851 -92.1082 266° West 355 409 38,000  Level FlightAware ADS-B (LPVM)
Thu 07:57:48 PM 41.9795 -92.2066 266° West 355 409 38,000  Level FlightAware ADS-B (LPVM)
Thu 07:58:28 PM 41.9745 -92.2945 266° West 354 407 38,000  Level FlightAware ADS-B (LPVM)
Thu 07:59:20 PM 41.9676 -92.4092 265° West 354 407 38,000  Level FlightAware ADS-B (LPVM)
Thu 07:59:57 PM 41.9630 -92.4901 266° West 355 409 38,000  Level FlightAware ADS-B (LPVM)
Thu 08:00:46 PM 41.9581 -92.5718 265° West 356 410 38,000  Level FlightAware ADS-B (LPVM)
Thu 08:02:08 PM 41.9476 -92.7428 265° West 356 410 38,000  Level FlightAware ADS-B (LPVM)
Thu 08:02:38 PM 41.9424 -92.8267 265° West 355 409 38,000  Level FlightAware ADS-B (LPVM)
Thu 08:03:45 PM 41.9321 -92.9898 265° West 355 409 38,000  Level FlightAware ADS-B (LPVM)
Thu 08:04:26 PM 41.9263 -93.0799 265° West 355 409 38,000  Level FlightAware ADS-B (LPVM)
Thu 08:04:37 PM 41.9249 -93.1016 265° West 355 409 38,000  Level FlightAware ADS-B
Thu 08:05:08 PM 41.9204 -93.1710 265° West 356 410 38,000  Level FlightAware ADS-B
Thu 08:05:39 PM 41.9159 -93.2390 265° West 357 411 38,000  Level FlightAware ADS-B
Thu 08:05:46 PM 41.9165 -93.2306 84° East 357 411 38,000  Level FlightAware ADS-B (LPVM)
Thu 08:06:11 PM 41.9113 -93.3089 265° West 357 411 38,000  Level FlightAware ADS-B
Thu 08:06:42 PM 41.9066 -93.3783 265° West 357 411 38,000  Level FlightAware ADS-B
Thu 08:07:12 PM 41.9021 -93.4445 265° West 358 412 38,000  Level FlightAware ADS-B
Thu 08:07:44 PM 41.8974 -93.5134 265° West 359 413 38,000  Level FlightAware ADS-B
Thu 08:08:07 PM 41.8937 -93.5673 265° West 359 413 38,000  Level FlightAware ADS-B (LPVM)
Thu 08:08:14 PM 41.8928 -93.5803 265° West 358 412 38,000  Level FlightAware ADS-B
Thu 08:08:44 PM 41.8882 -93.6470 265° West 359 413 38,000  Level FlightAware ADS-B
Thu 08:09:15 PM 41.8834 -93.7150 265° West 359 413 38,000  Level FlightAware ADS-B
Thu 08:09:45 PM 41.8787 -93.7822 265° West 360 414 38,000  Level FlightAware ADS-B
Thu 08:10:06 PM 41.8753 -93.8304 265° West 359 413 38,000  Level FlightAware ADS-B (LPVM)
Thu 08:10:16 PM 41.8738 -93.8503 264° West 360 414 38,000  Level FlightAware ADS-B
Thu 08:10:46 PM 41.8690 -93.9178 265° West 361 415 38,000  Level FlightAware ADS-B
Thu 08:11:17 PM 41.8641 -93.9847 264° West 361 415 38,000  Level FlightAware ADS-B
Thu 08:11:47 PM 41.8592 -94.0526 264° West 360 414 38,000  Level FlightAware ADS-B
Thu 08:12:20 PM 41.8537 -94.1252 264° West 360 414 38,000  Level FlightAware ADS-B
Thu 08:12:51 PM 41.8486 -94.1945 264° West 361 415 38,000  Level FlightAware ADS-B
Thu 08:13:22 PM 41.8436 -94.2626 264° West 360 414 38,000  Level FlightAware ADS-B
Thu 08:13:41 PM 41.8412 -94.2936 264° West 360 414 38,000  Level FlightAware ADS-B (LPVM)
Thu 08:13:53 PM 41.8384 -94.3303 264° West 360 414 38,000  Level FlightAware ADS-B
Thu 08:14:23 PM 41.8334 -94.3975 264° West 359 413 38,000  Level FlightAware ADS-B
Thu 08:14:54 PM 41.8280 -94.4665 264° West 358 412 38,000  Level FlightAware ADS-B
Thu 08:15:25 PM 41.8228 -94.5327 264° West 358 412 38,000  Level FlightAware ADS-B
Thu 08:15:55 PM 41.8176 -94.5997 264° West 358 412 38,000  Level FlightAware ADS-B
Thu 08:16:25 PM 41.8125 -94.6666 264° West 358 412 38,000  Level FlightAware ADS-B
Thu 08:16:55 PM 41.8072 -94.7327 264° West 357 411 38,000  Level FlightAware ADS-B
Thu 08:17:26 PM 41.8020 -94.7987 264° West 357 411 38,000  Level FlightAware ADS-B
Thu 08:17:56 PM 41.7966 -94.8659 264° West 356 410 38,000  Level FlightAware ADS-B
Thu 08:18:27 PM 41.7912 -94.9324 264° West 355 409 38,000  Level FlightAware ADS-B
Thu 08:18:58 PM 41.7856 -94.9999 264° West 355 409 38,000  Level FlightAware ADS-B
Thu 08:19:28 PM 41.7803 -95.0655 264° West 355 409 38,000  Level FlightAware ADS-B
Thu 08:19:58 PM 41.7748 -95.1316 264° West 355 409 38,000  Level FlightAware ADS-B
Thu 08:20:28 PM 41.7694 -95.1972 264° West 355 409 38,000  Level FlightAware ADS-B
Thu 08:20:58 PM 41.7638 -95.2627 263° West 354 407 38,000  Level FlightAware ADS-B
Thu 08:21:29 PM 41.7583 -95.3289 264° West 353 406 38,000  Level FlightAware ADS-B
Thu 08:21:59 PM 41.7527 -95.3944 263° West 352 405 38,000  Level FlightAware ADS-B
Thu 08:22:30 PM 41.7470 -95.4609 263° West 352 405 38,000  Level FlightAware ADS-B
Thu 08:23:01 PM 41.7412 -95.5276 263° West 352 405 38,000  Level FlightAware ADS-B
Thu 08:23:32 PM 41.7354 -95.5949 263° West 354 407 38,000  Level FlightAware ADS-B
Thu 08:24:02 PM 41.7297 -95.6598 263° West 353 406 38,000  Level FlightAware ADS-B
Thu 08:24:32 PM 41.7241 -95.7253 263° West 354 407 38,000  Level FlightAware ADS-B
Thu 08:25:02 PM 41.7183 -95.7895 263° West 355 409 38,000  Level FlightAware ADS-B
Thu 08:25:32 PM 41.7124 -95.8566 263° West 354 407 38,000  Level FlightAware ADS-B
Thu 08:26:05 PM 41.7060 -95.9270 263° West 354 407 38,000  Level FlightAware ADS-B
Thu 08:26:35 PM 41.7001 -95.9922 263° West 354 407 38,000  Level FlightAware ADS-B
Thu 08:27:05 PM 41.6941 -96.0577 263° West 355 409 38,000  Level FlightAware ADS-B
Thu 08:27:36 PM 41.6881 -96.1235 263° West 355 409 38,000  Level FlightAware ADS-B
Thu 08:28:06 PM 41.6821 -96.1889 263° West 355 409 38,000  Level FlightAware ADS-B
Thu 08:28:36 PM 41.6760 -96.2546 263° West 355 409 38,000  Level FlightAware ADS-B
Thu 08:29:06 PM 41.6699 -96.3206 263° West 355 409 38,000  Level FlightAware ADS-B
Thu 08:29:37 PM 41.6637 -96.3869 263° West 355 409 38,000  Level FlightAware ADS-B
Thu 08:30:07 PM 41.6575 -96.4526 263° West 354 407 38,000  Level FlightAware ADS-B
Thu 08:30:37 PM 41.6512 -96.5180 263° West 353 406 38,000  Level FlightAware ADS-B
Thu 08:31:08 PM 41.6449 -96.5841 263° West 352 405 38,000  Level FlightAware ADS-B
Thu 08:31:38 PM 41.6387 -96.6487 263° West 352 405 38,000  Level FlightAware ADS-B
Thu 08:32:08 PM 41.6325 -96.7133 263° West 352 405 38,000  Level FlightAware ADS-B
Thu 08:32:38 PM 41.6261 -96.7781 262° West 353 406 38,000  Level FlightAware ADS-B
Thu 08:33:09 PM 41.6196 -96.8438 262° West 352 405 38,000  Level FlightAware ADS-B
Thu 08:33:39 PM 41.6132 -96.9089 263° West 352 405 38,000  Level FlightAware ADS-B
Thu 08:34:10 PM 41.6068 -96.9747 263° West 352 405 38,000  Level FlightAware ADS-B
Thu 08:34:40 PM 41.6002 -97.0405 262° West 352 405 38,000  Level FlightAware ADS-B
Thu 08:35:10 PM 41.5937 -97.1050 262° West 352 405 38,000  Level FlightAware ADS-B
Thu 08:35:41 PM 41.5871 -97.1705 262° West 352 405 38,000  Level FlightAware ADS-B
Thu 08:36:16 PM 41.5795 -97.2452 262° West 351 404 38,000  Level FlightAware ADS-B
Thu 08:36:47 PM 41.5726 -97.3124 262° West 352 405 38,000  Level FlightAware ADS-B
Thu 08:37:17 PM 41.5659 -97.3778 262° West 352 405 38,000  Level FlightAware ADS-B
Thu 08:37:48 PM 41.5591 -97.4433 262° West 352 405 38,000  Level FlightAware ADS-B
Thu 08:38:18 PM 41.5524 -97.5082 262° West 352 405 38,000  Level FlightAware ADS-B
Thu 08:38:48 PM 41.5457 -97.5725 262° West 351 404 38,000  Level FlightAware ADS-B
Thu 08:39:25 PM 41.5374 -97.6513 262° West 352 405 38,000  Level FlightAware ADS-B
Thu 08:39:55 PM 41.5305 -97.7161 262° West 352 405 38,000  Level FlightAware ADS-B
Thu 08:40:26 PM 41.5235 -97.7815 262° West 350 403 38,000  Level FlightAware ADS-B
Thu 08:40:59 PM 41.5161 -97.8512 262° West 348 400 38,000  Level FlightAware ADS-B
Thu 08:41:24 PM 41.5104 -97.9045 262° West 348 400 38,000  Level FlightAware ADS-B
Thu 08:41:54 PM 41.5034 -97.9686 262° West 347 399 38,000  Level FlightAware ADS-B
Thu 08:43:10 PM 41.4809 -98.1280 259° West 347 399 38,000  Level FlightAware ADS-B
Thu 08:43:40 PM 41.4713 -98.1909 259° West 345 397 38,000  Level FlightAware ADS-B
Thu 08:44:11 PM 41.4618 -98.2544 259° West 344 396 38,000  Level FlightAware ADS-B
Thu 08:44:41 PM 41.4524 -98.3174 259° West 342 394 38,000  Level FlightAware ADS-B
Thu 08:46:39 PM 41.4159 -98.5592 259° West 338 389 38,000  Level FlightAware ADS-B
Thu 08:47:10 PM 41.4064 -98.6205 258° West 337 388 38,000  Level FlightAware ADS-B
Thu 08:47:40 PM 41.3969 -98.6823 258° West 337 388 38,000  Level FlightAware ADS-B
Thu 08:48:11 PM 41.3875 -98.7442 259° West 336 387 38,000  Level FlightAware ADS-B
Thu 08:48:42 PM 41.3777 -98.8067 258° West 335 386 38,000  Level FlightAware ADS-B
Thu 08:49:57 PM 41.3540 -98.9587 258° West 334 384 38,000  Level FlightAware ADS-B
Thu 08:50:30 PM 41.3437 -99.0241 258° West 333 383 38,000  Level FlightAware ADS-B
Thu 08:51:00 PM 41.3341 -99.0845 258° West 331 381 38,000  Level FlightAware ADS-B
Thu 08:51:31 PM 41.3244 -99.1459 258° West 330 380 38,000  Level FlightAware ADS-B
Thu 08:52:02 PM 41.3149 -99.2061 258° West 329 379 38,000  Level FlightAware ADS-B
Thu 08:52:32 PM 41.3054 -99.2656 258° West 328 377 38,000  Level FlightAware ADS-B
Thu 08:56:09 PM 41.2360 -99.6954 258° West 332 382 38,000  Level FlightAware ADS-B
Thu 08:56:39 PM 41.2262 -99.7549 258° West 333 383 38,000  Level FlightAware ADS-B
Thu 08:57:20 PM 41.2126 -99.8365 258° West 334 384 38,000  Level FlightAware ADS-B
Thu 08:58:13 PM 41.1978 -99.9342 258° West 331 381 38,000  Level Minneapolis Center
Thu 08:59:15 PM 41.1775 -100.0550 257° West 331 381 38,000  Level Minneapolis Center
Thu 08:59:50 PM 41.1683 -100.1039 256° West 334 384 38,000  Level Denver Center
Thu 09:05:06 PM 41.0545 -100.7693 256° West 347 399 38,000  Level FlightAware ADS-B (EGNT / NCL)
Thu 09:05:49 PM 41.0382 -100.8627 257° West 349 402 38,000  Level FlightAware ADS-B (EGNT / NCL)
Thu 09:06:30 PM 41.0237 -100.9454 257° West 351 404 38,000  Level FlightAware ADS-B (EGNT / NCL)
Thu 09:07:13 PM 41.0073 -101.0385 257° West 352 405 38,000  Level FlightAware ADS-B (EGNT / NCL)
Thu 09:07:52 PM 40.9953 -101.1061 257° West 354 407 38,000  Level FlightAware ADS-B (EGNT / NCL)
Thu 09:08:34 PM 40.9769 -101.2093 257° West 355 409 38,000  Level FlightAware ADS-B (EGNT / NCL)
Thu 09:09:14 PM 40.9626 -101.2900 257° West 355 409 38,000  Level FlightAware ADS-B (EGNT / NCL)
Thu 09:09:55 PM 40.9478 -101.3769 257° West 353 406 38,000  Level FlightAware ADS-B (EGNT / NCL)
Thu 09:10:50 PM 40.9529 -101.4910 273° West 347 399 38,000  Level FlightAware ADS-B (EGNT / NCL)
Thu 09:11:34 PM 40.9619 -101.5837 277° West 346 398 38,000  Level FlightAware ADS-B (EGNT / NCL)
Thu 09:12:16 PM 40.9688 -101.6562 277° West 343 395 38,000  Level FlightAware ADS-B (EGNT / NCL)
Thu 09:12:55 PM 40.9781 -101.7567 277° West 343 395 38,000  Level FlightAware ADS-B (EGNT / NCL)
Thu 09:13:35 PM 40.9854 -101.8376 277° West 341 392 38,000  Level FlightAware ADS-B (EGNT / NCL)
Thu 09:14:15 PM 40.9929 -101.9210 277° West 341 392 38,000  Level FlightAware ADS-B (EGNT / NCL)
Thu 09:14:56 PM 40.9988 -101.9997 276° West 340 391 38,000  Level FlightAware ADS-B (EGNT / NCL)
Thu 09:15:37 PM 40.9953 -102.0905 267° West 340 391 38,000  Level FlightAware ADS-B (EGNT / NCL)
Thu 09:16:15 PM 40.9914 -102.1578 266° West 338 389 38,000  Level FlightAware ADS-B (EGNT / NCL)
Thu 09:16:58 PM 40.9858 -102.2562 266° West 337 388 38,000  Level FlightAware ADS-B (EGNT / NCL)
Thu 09:17:34 PM 40.9811 -102.3315 265° West 333 383 38,000  Level FlightAware ADS-B (EGNT / NCL)
Thu 09:18:01 PM 40.9711 -102.3721 252° West 340 391 38,000  Level FlightAware ADS-B (EGNT / NCL)
Thu 09:18:41 PM 40.9426 -102.4553 246° West 339 390 38,000  Level FlightAware ADS-B (EGNT / NCL)
Thu 09:19:19 PM 40.9170 -102.5321 246° West 339 390 38,000  Level FlightAware ADS-B (EGNT / NCL)
Thu 09:20:01 PM 40.8923 -102.6057 246° West 339 390 38,000  Level FlightAware ADS-B (EGNT / NCL)
Thu 09:20:43 PM 40.8654 -102.6870 246° West 339 390 38,000  Level FlightAware ADS-B (EGNT / NCL)
Thu 09:21:21 PM 40.8405 -102.7625 246° West 339 390 38,000  Level FlightAware ADS-B (EGNT / NCL)
Thu 09:22:03 PM 40.8150 -102.8400 247° West 340 391 38,000  Level FlightAware ADS-B (EGNT / NCL)
Thu 09:22:43 PM 40.7952 -102.9092 249° West 337 388 38,000  Level FlightAware ADS-B (EGNT / NCL)
Thu 09:23:23 PM 40.7844 -102.9996 261° West 338 389 38,000  Level FlightAware ADS-B (EGNT / NCL)
Thu 09:24:03 PM 40.7837 -103.0819 269° West 339 390 38,000  Level FlightAware ADS-B (EGNT / NCL)
Thu 09:24:44 PM 40.7833 -103.1647 270° West 338 389 38,000  Level FlightAware ADS-B (EGNT / NCL)
Thu 09:25:23 PM 40.7832 -103.2473 270° West 339 390 38,000  Level FlightAware ADS-B (EGNT / NCL)
Thu 09:26:04 PM 40.7831 -103.3319 270° West 341 392 38,000  Level FlightAware ADS-B (EGNT / NCL)
Thu 09:26:40 PM 40.7828 -103.4063 270° West 341 392 38,000  Level FlightAware ADS-B (EGNT / NCL)
Thu 09:27:24 PM 40.7823 -103.4984 270° West 340 391 38,000  Level FlightAware ADS-B (EGNT / NCL)
Thu 09:28:03 PM 40.7820 -103.5788 270° West 341 392 38,000  Level FlightAware ADS-B (EGNT / NCL)
Thu 09:28:45 PM 40.7815 -103.6646 270° West 341 392 38,000  Level FlightAware ADS-B (EGNT / NCL)
Thu 09:29:25 PM 40.7808 -103.7453 269° West 343 395 38,000  Level FlightAware ADS-B (EGNT / NCL)
Thu 09:30:05 PM 40.7802 -103.8314 269° West 344 396 38,000  Level FlightAware ADS-B (EGNT / NCL)
Thu 09:30:46 PM 40.7797 -103.9166 270° West 344 396 38,000  Level FlightAware ADS-B (EGNT / NCL)
Thu 09:31:25 PM 40.7788 -104.0004 269° West 344 396 38,000  Level FlightAware ADS-B (EGNT / NCL)
Thu 09:32:06 PM 40.7780 -104.0810 269° West 346 398 38,000  Level FlightAware ADS-B (CYQT)
Thu 09:32:45 PM 40.7772 -104.1675 269° West 345 397 38,000  Level FlightAware ADS-B (EGNT / NCL)
Thu 09:33:06 PM 40.7767 -104.2108 269° West 345 397 38,000  Level FlightAware ADS-B (EGNT / NCL)
Thu 09:33:26 PM 40.7742 -104.2441 264° West 347 399 38,000  Level FlightAware ADS-B (EGNT / NCL)
Thu 09:34:06 PM 40.7632 -104.3336 261° West 347 399 38,000  Level FlightAware ADS-B (CYQT)
Thu 09:34:47 PM 40.7507 -104.4209 259° West 351 404 38,000  Level FlightAware ADS-B (CYQT)
Thu 09:35:26 PM 40.7390 -104.5005 259° West 351 404 38,000  Level FlightAware ADS-B (CYQT)
Thu 09:36:05 PM 40.7264 -104.5852 259° West 351 404 38,000  Level FlightAware ADS-B (EGNT / NCL)
Thu 09:36:46 PM 40.7151 -104.6620 259° West 351 404 38,000  Level FlightAware ADS-B (CYQT)
Thu 09:38:06 PM 40.6951 -104.7974 259° West 351 404 38,000  Level FlightAware ADS-B (CYQT)
Thu 09:38:48 PM 40.6768 -104.9216 259° West 348 400 38,000  Level FlightAware ADS-B (EGNT / NCL)
Thu 09:39:47 PM 40.6595 -105.0364 259° West 348 400 38,000  Level FlightAware ADS-B (CYQT)
Thu 09:40:21 PM 40.6501 -105.0989 259° West 348 400 38,000  Level FlightAware ADS-B (CYQT)
Thu 09:41:07 PM 40.6501 -105.0989 259° West 347 399 38,000  Level FlightAware ADS-B (CYQT)
Thu 09:42:09 PM 40.6132 -105.3417 259° West 347 399 38,000  Level FlightAware ADS-B (EGNT / NCL)
Thu 09:42:49 PM 40.6009 -105.4219 259° West 345 397 38,000  Level FlightAware ADS-B (EGNT / NCL)
Thu 09:43:29 PM 40.5882 -105.5031 258° West 344 396 38,000  Level FlightAware ADS-B (EGNT / NCL)
Thu 09:44:11 PM 40.5749 -105.5930 259° West 344 396 38,000  Level FlightAware ADS-B (EGNT / NCL)
Thu 09:44:50 PM 40.5641 -105.6647 259° West 345 397 38,000  Level FlightAware ADS-B (EGNT / NCL)
Thu 09:45:30 PM 40.5505 -105.7537 259° West 347 399 38,000  Level FlightAware ADS-B (EGNT / NCL)
Thu 09:46:10 PM 40.5377 -105.8374 259° West 346 398 38,000  Level FlightAware ADS-B
Thu 09:46:51 PM 40.5246 -105.9224 259° West 348 400 38,000  Level FlightAware ADS-B (EGNT / NCL)
Thu 09:46:59 PM 40.5223 -105.9373 258° West 348 400 38,000  Level FlightAware ADS-B
Thu 09:47:33 PM 40.5132 -105.9962 259° West 348 400 38,000  Level FlightAware ADS-B (EGNT / NCL)
Thu 09:48:11 PM 40.4994 -106.0849 258° West 349 402 38,000  Level FlightAware ADS-B (EGNT / NCL)
Thu 09:48:53 PM 40.4855 -106.1734 258° West 348 400 38,000  Level FlightAware ADS-B (EGNT / NCL)
Thu 09:49:34 PM 40.4727 -106.2557 258° West 347 399 38,000  Level FlightAware ADS-B (EGNT / NCL)
Thu 09:50:15 PM 40.4604 -106.3340 258° West 347 399 38,000  Level FlightAware ADS-B (EGNT / NCL)
Thu 09:50:55 PM 40.4459 -106.4249 258° West 347 399 38,000  Level FlightAware ADS-B (EGNT / NCL)
Thu 09:51:35 PM 40.4329 -106.5062 258° West 346 398 38,000  Level FlightAware ADS-B (EGNT / NCL)
Thu 09:52:15 PM 40.4196 -106.5893 258° West 347 399 38,000  Level FlightAware ADS-B (EGNT / NCL)
Thu 09:52:54 PM 40.4066 -106.6701 258° West 349 402 38,000  Level FlightAware ADS-B (EGNT / NCL)
Thu 09:53:30 PM 40.3953 -106.7398 258° West 349 402 38,000  Level FlightAware ADS-B
Thu 09:54:17 PM 40.3802 -106.8328 258° West 349 402 38,000  Level FlightAware ADS-B (EGNT / NCL)
Thu 09:54:52 PM 40.3672 -106.9130 258° West 349 402 38,000  Level FlightAware ADS-B (EDXW / GWT)
Thu 09:55:23 PM 40.3573 -106.9736 258° West 349 402 38,000  Level FlightAware ADS-B (EDXW / GWT)
Thu 09:55:54 PM 40.3462 -107.0407 258° West 349 402 38,000  Level FlightAware ADS-B (EDXW / GWT)
Thu 09:56:24 PM 40.3359 -107.1030 258° West 349 402 38,000  Level FlightAware ADS-B (EDXW / GWT)
Thu 09:56:57 PM 40.3256 -107.1650 258° West 349 402 38,000  Level FlightAware ADS-B (EGNT / NCL)
Thu 09:57:39 PM 40.3108 -107.2543 258° West 349 402 38,000  Level FlightAware ADS-B (EGNT / NCL)
Thu 09:58:20 PM 40.2959 -107.3433 258° West 350 403 38,000  Level FlightAware ADS-B
Thu 09:59:33 PM 40.2704 -107.4948 258° West 352 405 38,000  Level FlightAware ADS-B (EDXW / GWT)
Thu 10:00:05 PM 40.2602 -107.5552 258° West 353 406 38,000  Level FlightAware ADS-B (EDXW / GWT)
Thu 10:00:35 PM 40.2488 -107.6221 257° West 354 407 38,000  Level FlightAware ADS-B (EDXW / GWT)
Thu 10:01:05 PM 40.2378 -107.6859 257° West 355 409 38,000  Level FlightAware ADS-B (EDXW / GWT)
Thu 10:01:41 PM 40.2250 -107.7604 257° West 356 410 38,000  Level FlightAware ADS-B
Thu 10:02:22 PM 40.2099 -107.8474 257° West 358 412 38,000  Level FlightAware ADS-B
Thu 10:03:00 PM 40.1964 -107.9258 257° West 357 411 38,000  Level FlightAware ADS-B
Thu 10:03:42 PM 40.1808 -108.0145 257° West 358 412 38,000  Level FlightAware ADS-B
Thu 10:04:13 PM 40.1695 -108.0786 257° West 359 413 38,000  Level FlightAware ADS-B (EDXW / GWT)
Thu 10:04:43 PM 40.1581 -108.1434 257° West 360 414 38,000  Level FlightAware ADS-B (EDXW / GWT)
Thu 10:05:16 PM 40.1467 -108.2078 257° West 361 415 38,000  Level FlightAware ADS-B (KGUC)
Thu 10:05:56 PM 40.1317 -108.2920 257° West 362 417 38,000  Level FlightAware ADS-B (KGUC)
Thu 10:06:27 PM 40.1189 -108.3641 257° West 363 418 38,000  Level FlightAware ADS-B
Thu 10:07:07 PM 40.1038 -108.4488 257° West 365 420 38,000  Level FlightAware ADS-B
Thu 10:07:47 PM 40.0881 -108.5358 257° West 367 422 38,000  Level FlightAware ADS-B
Thu 10:08:27 PM 40.0724 -108.6229 257° West 369 425 38,000  Level FlightAware ADS-B
Thu 10:09:09 PM 40.0559 -108.7138 257° West 371 427 38,000  Level FlightAware ADS-B
Thu 10:09:48 PM 40.0404 -108.7992 257° West 373 429 38,000  Level FlightAware ADS-B
Thu 10:10:18 PM 40.0287 -108.8629 257° West 374 430 38,000  Level FlightAware ADS-B (KGUC)
Thu 10:10:48 PM 40.0168 -108.9272 256° West 376 433 38,000  Level FlightAware ADS-B
Thu 10:11:27 PM 40.0011 -109.0135 257° West 378 435 38,000  Level FlightAware ADS-B (EDXW / GWT)
Thu 10:11:57 PM 39.9886 -109.0808 256° West 380 437 38,000  Level FlightAware ADS-B (EDXW / GWT)
Thu 10:12:27 PM 39.9766 -109.1451 256° West 381 438 38,000  Level FlightAware ADS-B (EDXW / GWT)
Thu 10:12:58 PM 39.9631 -109.2173 256° West 383 441 38,000  Level FlightAware ADS-B (EDXW / GWT)
Thu 10:13:28 PM 39.9505 -109.2850 256° West 385 443 38,000  Level FlightAware ADS-B (EDXW / GWT)
Thu 10:13:58 PM 39.9380 -109.3517 256° West 385 443 38,000  Level FlightAware ADS-B (EDXW / GWT)
Thu 10:14:28 PM 39.9250 -109.4203 256° West 386 444 38,000  Level FlightAware ADS-B
Thu 10:14:58 PM 39.9134 -109.4821 256° West 386 444 38,000  Level FlightAware ADS-B (EDXW / GWT)
Thu 10:15:30 PM 39.8992 -109.5575 256° West 386 444 38,000  Level FlightAware ADS-B (EDXW / GWT)
Thu 10:16:00 PM 39.8858 -109.6271 256° West 386 444 38,000  Level FlightAware ADS-B (EDXW / GWT)
Thu 10:16:30 PM 39.8728 -109.6952 256° West 385 443 38,000  Level FlightAware ADS-B (EDXW / GWT)
Thu 10:17:01 PM 39.8614 -109.7546 256° West 386 444 38,000  Level FlightAware ADS-B (EDXW / GWT)
Thu 10:17:31 PM 39.8466 -109.8313 256° West 387 445 38,000  Level FlightAware ADS-B (EDXW / GWT)
Thu 10:18:02 PM 39.8334 -109.9004 256° West 388 447 38,000  Level FlightAware ADS-B (EDXW / GWT)
Thu 10:18:33 PM 39.8201 -109.9686 256° West 390 449 38,000  Level FlightAware ADS-B
Thu 10:19:07 PM 39.8048 -110.0479 256° West 390 449 38,000  Level FlightAware ADS-B (EDXW / GWT)
Thu 10:19:37 PM 39.7915 -110.1159 256° West 390 449 38,000  Level FlightAware ADS-B (EDXW / GWT)
Thu 10:20:07 PM 39.7785 -110.1817 256° West 392 451 38,000  Level FlightAware ADS-B (EDXW / GWT)
Thu 10:20:38 PM 39.7641 -110.2554 256° West 391 450 38,000  Level FlightAware ADS-B (EDXW / GWT)
Thu 10:21:13 PM 39.7483 -110.3352 256° West 392 451 38,000  Level FlightAware ADS-B
Thu 10:21:54 PM 39.7305 -110.4253 256° West 390 449 38,000  Level FlightAware ADS-B
Thu 10:22:34 PM 39.7125 -110.5162 256° West 390 449 38,000  Level FlightAware ADS-B
Thu 10:23:14 PM 39.6940 -110.6090 256° West 389 448 38,000  Level FlightAware ADS-B
Thu 10:23:55 PM 39.6758 -110.6992 255° West 390 449 38,000  Level FlightAware ADS-B
Thu 10:24:27 PM 39.6624 -110.7662 255° West 389 448 38,000  Level FlightAware ADS-B
Thu 10:25:02 PM 39.6450 -110.8515 255° West 391 450 38,000  Level FlightAware ADS-B
Thu 10:25:41 PM 39.6269 -110.9409 255° West 392 451 38,000  Level FlightAware ADS-B
Thu 10:26:25 PM 39.6070 -111.0392 255° West 393 452 38,000  Level FlightAware ADS-B
Thu 10:27:02 PM 39.5903 -111.1200 255° West 394 453 38,000  Level FlightAware ADS-B
Thu 10:27:48 PM 39.5679 -111.2289 255° West 393 452 38,000  Level FlightAware ADS-B
Thu 10:28:30 PM 39.5507 -111.3124 255° West 394 453 38,000  Level FlightAware ADS-B
Thu 10:29:06 PM 39.5316 -111.4043 255° West 393 452 38,000  Level FlightAware ADS-B
Thu 10:29:36 PM 39.5174 -111.4723 255° West 393 452 38,000  Level FlightAware ADS-B
Thu 10:30:07 PM 39.5028 -111.5428 255° West 391 450 38,000  Level FlightAware ADS-B
Thu 10:30:37 PM 39.4884 -111.6111 255° West 390 449 38,000  Level FlightAware ADS-B
Thu 10:31:10 PM 39.4731 -111.6836 255° West 388 447 38,000  Level FlightAware ADS-B
Thu 10:31:51 PM 39.4535 -111.7766 255° West 385 443 38,000  Level FlightAware ADS-B
Thu 10:32:31 PM 39.4344 -111.8664 255° West 381 438 38,000  Level FlightAware ADS-B
Thu 10:33:05 PM 39.4187 -111.9403 255° West 383 441 38,000  Level FlightAware ADS-B (KBTF)
Thu 10:33:41 PM 39.4026 -112.0158 255° West 382 440 38,000  Level FlightAware ADS-B
Thu 10:34:12 PM 39.3872 -112.0870 254° West 379 436 38,000  Level FlightAware ADS-B
Thu 10:34:43 PM 39.3728 -112.1537 254° West 378 435 38,000  Level FlightAware ADS-B
Thu 10:35:14 PM 39.3582 -112.2209 254° West 377 434 38,000  Level FlightAware ADS-B
Thu 10:35:49 PM 39.3433 -112.2905 254° West 376 433 38,000  Level FlightAware ADS-B
Thu 10:36:30 PM 39.3233 -112.3832 254° West 377 434 38,000  Level FlightAware ADS-B
Thu 10:37:13 PM 39.3027 -112.4776 254° West 378 435 38,000  Level FlightAware ADS-B
Thu 10:37:47 PM 39.2864 -112.5517 254° West 377 434 38,000  Level FlightAware ADS-B
Thu 10:38:09 PM 39.2805 -112.5784 254° West 376 433 38,000  Level FlightAware ADS-B
Thu 10:38:12 PM 39.2746 -112.6058 254° West 377 434 38,000  Level FlightAware ADS-B (KBTF)
Thu 10:38:55 PM 39.2540 -112.6986 254° West 378 435 38,000  Level FlightAware ADS-B
Thu 10:39:12 PM 39.2462 -112.7346 254° West 378 435 38,000  Level FlightAware ADS-B (KBTF)
Thu 10:39:34 PM 39.2355 -112.7828 254° West 377 434 38,000  Level FlightAware ADS-B (KBTF)
Thu 10:40:11 PM 39.2176 -112.8624 254° West 376 433 38,000  Level FlightAware ADS-B
Thu 10:40:51 PM 39.1982 -112.9501 254° West 380 437 38,000  Level FlightAware ADS-B
Thu 10:41:21 PM 39.1847 -113.0104 254° West 383 441 38,000  Level FlightAware ADS-B
Thu 10:42:03 PM 39.1654 -113.0966 254° West 385 443 38,000  Level FlightAware ADS-B
Thu 10:42:37 PM 39.1459 -113.1829 254° West 384 442 38,000  Level FlightAware ADS-B
Thu 10:43:13 PM 39.1282 -113.2614 254° West 386 444 38,000  Level FlightAware ADS-B
Thu 10:43:51 PM 39.1104 -113.3399 254° West 391 450 38,000  Level FlightAware ADS-B
Thu 10:44:31 PM 39.0893 -113.4326 254° West 393 452 38,000  Level FlightAware ADS-B
Thu 10:45:14 PM 39.0671 -113.5298 254° West 394 453 38,000  Level FlightAware ADS-B
Thu 10:45:57 PM 39.0448 -113.6267 254° West 396 456 38,000  Level FlightAware ADS-B
Thu 10:46:39 PM 39.0234 -113.7191 253° West 397 457 38,000  Level FlightAware ADS-B
Thu 10:47:23 PM 39.0005 -113.8179 253° West 398 458 38,000  Level FlightAware ADS-B
Thu 10:48:04 PM 38.9781 -113.9151 253° West 400 460 38,000  Level FlightAware ADS-B
Thu 10:48:44 PM 38.9573 -114.0034 253° West 397 457 38,000  Level FlightAware ADS-B
Thu 10:49:26 PM 38.9364 -114.0929 253° West 397 457 38,000  Level FlightAware ADS-B
Thu 10:50:06 PM 38.9138 -114.1887 253° West 395 455 38,000  Level FlightAware ADS-B
Thu 10:50:47 PM 38.8938 -114.2737 253° West 397 457 38,000  Level FlightAware ADS-B
Thu 10:51:21 PM 38.8747 -114.3542 253° West 398 458 38,000  Level FlightAware ADS-B
Thu 10:52:14 PM 38.8517 -114.4581 253° West 396 456 38,000  Level Salt Lake Center
Thu 10:53:16 PM 38.8183 -114.5944 253° West 400 460 38,000  Level Salt Lake Center
Thu 10:54:17 PM 38.7853 -114.7308 253° West 401 461 38,000  Level Salt Lake Center
Thu 10:55:18 PM 38.7528 -114.8672 253° West 403 464 38,000  Level Salt Lake Center
Thu 10:56:20 PM 38.7117 -115.0303 252° West 403 464 38,000  Level Salt Lake Center
Thu 10:57:21 PM 38.6786 -115.1675 253° West 403 464 38,000  Level Salt Lake Center
Thu 10:58:23 PM 38.6447 -115.3042 252° West 404 465 38,000  Level Salt Lake Center
Thu 10:59:24 PM 38.6064 -115.4539 252° West 411 473 38,000  Level Salt Lake Center
Thu 11:00:26 PM 38.5733 -115.5911 253° West 406 467 38,000  Level Salt Lake Center
Thu 11:06:08 PM 38.3717 -116.3827 253° West 409 471 38,000  Level FlightAware ADS-B (EPLL / LCJ)
Thu 11:07:31 PM 38.3226 -116.5726 252° West 408 470 38,000  Level FlightAware ADS-B (EPLL / LCJ)
Thu 11:08:29 PM 38.2880 -116.7053 252° West 406 467 38,000  Level FlightAware ADS-B (EPLL / LCJ)
Thu 11:10:38 PM 38.2116 -116.9952 252° West 405 466 38,000  Level FlightAware ADS-B (EPLL / LCJ)
Thu 11:11:55 PM 38.1657 -117.1680 251° West 403 464 38,000  Level FlightAware ADS-B (EPLL / LCJ)
Thu 11:13:03 PM 38.1246 -117.3214 251° West 405 466 38,000  Level FlightAware ADS-B (EPLL / LCJ)
Thu 11:13:35 PM 38.1053 -117.3934 251° West 405 466 38,000  Level FlightAware ADS-B (EPLL / LCJ)
Thu 11:14:06 PM 38.0867 -117.4628 251° West 406 467 38,000  Level FlightAware ADS-B (EPLL / LCJ)
Thu 11:14:50 PM 38.0599 -117.5619 251° West 407 468 38,000  Level FlightAware ADS-B (EPLL / LCJ)
Thu 11:15:47 PM 38.0250 -117.6906 251° West 406 467 38,000  Level FlightAware ADS-B (EPLL / LCJ)
Thu 11:16:23 PM 38.0048 -117.7703 252° West 406 467 38,000  Level FlightAware ADS-B (EPLL / LCJ)
Thu 11:17:23 PM 37.9889 -117.9014 252° West 404 465 38,000  Level Oakland Center
Thu 11:18:24 PM 37.9753 -118.0442 263° West 406 467 38,000  Level Oakland Center
Thu 11:19:25 PM 37.9594 -118.1850 262° West 406 467 38,000  Level Oakland Center
Thu 11:24:57 PM 37.9371 -118.3912 262° West 406 467 38,000  Level FlightAware ADS-B
Thu 11:29:56 PM 37.7894 -119.6757 262° West 405 466 38,000  Level FlightAware ADS-B
Thu 11:30:37 PM 37.7775 -119.7706 262° West 404 465 38,000  Level Oakland Center
Thu 11:31:38 PM 37.7600 -119.9125 261° West 407 468 38,000  Level Oakland Center
Thu 11:32:39 PM 37.7431 -120.0533 261° West 405 466 38,000 -344 Level Oakland Center
Thu 11:33:40 PM 37.7253 -120.1931 261° West 404 465 37,300 -878 Descending Oakland Center
Thu 11:34:42 PM 37.7081 -120.3333 261° West 403 464 36,200 -976 Descending Oakland Center
Thu 11:35:43 PM 37.6900 -120.4719 261° West 402 463 35,300 -836 Descending Oakland Center
Thu 11:36:44 PM 37.6722 -120.6081 261° West 396 456 34,500 -787 Descending Oakland Center
Thu 11:37:45 PM 37.6561 -120.7411 261° West 388 447 33,700 -2,892 Descending Oakland Center
Thu 11:43:14 PM 37.5813 -121.3640 261° West 317 365 15,700 -3,192 Descending FlightAware ADS-B
Thu 11:43:44 PM 37.5749 -121.4190 262° West 313 360 14,600 -2,300 Descending FlightAware ADS-B
Thu 11:44:14 PM 37.5683 -121.4740 261° West 315 362 13,400 -2,000 Descending FlightAware ADS-B
Thu 11:44:44 PM 37.5622 -121.5280 262° West 308 354 12,600 -1,889 Descending FlightAware ADS-B
Thu 11:45:08 PM 37.5668 -121.4870 82° East 304 350 11,700 -2,323 Descending FlightAware ADS-B
Thu 11:45:15 PM 37.5558 -121.5820 262° West 304 350 11,400 -1,440 Descending FlightAware ADS-B
Thu 11:45:33 PM 37.5515 -121.6150 261° West 310 357 11,100 -750 Descending FlightAware ADS-B
Thu 11:45:47 PM 37.5468 -121.6375 255° West 310 357 11,000 -200 Descending FlightAware ADS-B
Thu 11:46:03 PM 37.5396 -121.6660 252° West 301 346 11,000  Level FlightAware ADS-B
Thu 11:46:28 PM 37.5296 -121.7029 251° West 268 308 11,000  Level FlightAware ADS-B
Thu 11:46:35 PM 37.5264 -121.7150 251° West 264 304 11,000 -1,231 Level FlightAware ADS-B
Thu 11:47:07 PM 37.5138 -121.7600 251° West 258 297 10,200 -1,412 Descending FlightAware ADS-B
Thu 11:47:09 PM 37.5132 -121.7626 253° West 258 297 10,200 -1,200 Level FlightAware ADS-B
Thu 11:47:22 PM 37.5078 -121.7820 251° West 259 298 9,900 -1,500 Descending FlightAware ADS-B
Thu 11:47:29 PM 37.5056 -121.7896 250° West 258 297 9,700 -1,412 Descending FlightAware ADS-B
Thu 11:47:39 PM 37.5014 -121.8050 251° West 257 296 9,500 -1,143 Descending FlightAware ADS-B
Thu 11:47:50 PM 37.4975 -121.8196 251° West 256 295 9,300 -1,125 Descending FlightAware ADS-B
Thu 11:47:55 PM 37.4953 -121.8280 252° West 255 293 9,200 -1,263 Descending FlightAware ADS-B
Thu 11:48:09 PM 37.4907 -121.8446 251° West 253 291 8,900 -1,429 Descending FlightAware ADS-B
Thu 11:48:16 PM 37.4871 -121.8580 251° West 254 292 8,700 -1,765 Descending FlightAware ADS-B
Thu 11:48:26 PM 37.4860 -121.8617 249° West 254 292 8,400 -1,125 Descending FlightAware ADS-B
Thu 11:48:32 PM 37.4814 -121.8780 250° West 253 291 8,400 -857 Level FlightAware ADS-B
Thu 11:48:47 PM 37.4757 -121.9000 252° West 253 291 8,100 -1,412 Descending FlightAware ADS-B
Thu 11:48:49 PM 37.4750 -121.9022 247° West 253 291 8,000 -1,200 Descending FlightAware ADS-B
Thu 11:48:52 PM 37.4738 -121.9070 253° West 252 290 8,000 -857 Level FlightAware ADS-B
Thu 11:48:56 PM 37.4725 -121.9130 255° West 250 288 7,900 -1,333 Descending FlightAware ADS-B
Thu 11:49:01 PM 37.4720 -121.9200 265° West 248 285 7,800 -1,500 Descending FlightAware ADS-B
Thu 11:49:04 PM 37.4721 -121.9240 272° West 247 284 7,700 -1,000 Descending FlightAware ADS-B
Thu 11:49:07 PM 37.4725 -121.9290 276° West 244 281 7,700 -1,000 Level FlightAware ADS-B
Thu 11:49:10 PM 37.4730 -121.9317 284° West 242 278 7,600 -1,500 Descending FlightAware ADS-B
Thu 11:49:11 PM 37.4733 -121.9330 285° West 242 278 7,600 -1,500 Level FlightAware ADS-B
Thu 11:49:14 PM 37.4744 -121.9380 285° West 241 277 7,500 -1,636 Descending FlightAware ADS-B
Thu 11:49:22 PM 37.4770 -121.9490 287° West 238 274 7,300 -1,765 Descending FlightAware ADS-B
Thu 11:49:31 PM 37.4793 -121.9580 288° West 237 273 7,000 -1,875 Descending FlightAware ADS-B
Thu 11:49:38 PM 37.4820 -121.9690 287° West 236 272 6,800 -1,579 Descending FlightAware ADS-B
Thu 11:49:50 PM 37.4850 -121.9829 285° West 233 268 6,500 -1,714 Descending FlightAware ADS-B
Thu 11:49:52 PM 37.4859 -121.9870 286° West 233 268 6,400 -1,714 Descending FlightAware ADS-B
Thu 11:49:57 PM 37.4875 -121.9940 286° West 231 266 6,300 -1,500 Descending FlightAware ADS-B
Thu 11:50:00 PM 37.4889 -121.9980 294° West 230 265 6,200 -1,714 Descending FlightAware ADS-B
Thu 11:50:04 PM 37.4907 -122.0030 294° West 228 262 6,100 -2,000 Descending FlightAware ADS-B
Thu 11:50:12 PM 37.4936 -122.0120 292° West 226 260 5,800 -1,846 Descending FlightAware ADS-B
Thu 11:50:17 PM 37.4955 -122.0190 289° West 226 260 5,700 -1,667 Descending FlightAware ADS-B
Thu 11:50:30 PM 37.4992 -122.0350 286° West 225 259 5,300 -1,636 Descending FlightAware ADS-B
Thu 11:50:39 PM 37.5020 -122.0460 288° West 227 261 5,100 -947 Descending FlightAware ADS-B
Thu 11:50:49 PM 37.5061 -122.0590 292° West 226 260 5,000 -273 Descending FlightAware ADS-B
Thu 11:51:01 PM 37.5115 -122.0730 296° West 226 260 5,000  Level FlightAware ADS-B
Thu 11:51:16 PM 37.5188 -122.0910 297° West 227 261 5,000 -154 Level FlightAware ADS-B
Thu 11:51:40 PM 37.5290 -122.1170 296° West 213 245 4,900 -462 Descending FlightAware ADS-B
Thu 11:51:55 PM 37.5353 -122.1340 295° West 206 237 4,700 -581 Descending FlightAware ADS-B
Thu 11:52:11 PM 37.5414 -122.1500 296° West 193 222 4,600 -774 Descending FlightAware ADS-B
Thu 11:52:26 PM 37.5470 -122.1650 295° West 188 216 4,300 -1,286 Descending FlightAware ADS-B
Thu 11:52:39 PM 37.5515 -122.1780 294° West 183 211 4,000 -1,500 Descending FlightAware ADS-B
Thu 11:52:46 PM 37.5542 -122.1850 296° West 176 203 3,800 -1,250 Descending FlightAware ADS-B
Thu 11:53:03 PM 37.5598 -122.2000 295° West 168 193 3,500 -1,313 Descending FlightAware ADS-B
Thu 11:53:18 PM 37.5646 -122.2140 293° West 165 190 3,100 -1,241 Descending FlightAware ADS-B
Thu 11:53:32 PM 37.5689 -122.2250 296° West 167 192 2,900 -1,400 Descending FlightAware ADS-B
Thu 11:53:48 PM 37.5740 -122.2390 295° West 162 186 2,400 -1,655 Descending FlightAware ADS-B
Thu 11:54:01 PM 37.5779 -122.2500 294° West 161 185 2,100 -1,304 Descending FlightAware ADS-B
Thu 11:54:11 PM 37.5812 -122.2590 295° West 159 183 1,900 -720 Descending FlightAware ADS-B
Thu 11:54:26 PM 37.5859 -122.2720 295° West 162 186 1,800 -774 Descending FlightAware ADS-B
Thu 11:54:42 PM 37.5905 -122.2840 296° West 153 176 1,500 -1,091 Descending FlightAware ADS-B
Thu 11:54:48 PM 37.5920 -122.2890 291° West 142 163 1,400 -1,143 Descending FlightAware ADS-B
Thu 11:55:03 PM 37.5949 -122.3010 287° West 130 150 1,100 -968 Descending FlightAware ADS-B
Thu 11:55:19 PM 37.5975 -122.3110 288° West 120 138 900 -789 Descending FlightAware ADS-B
Thu 11:55:41 PM 37.6016 -122.3260 289° West 120 138 600 -750 Descending FlightAware ADS-B
Thu 11:55:51 PM 37.6035 -122.3320 292° West 118 136 500 -571 Descending FlightAware ADS-B
Thu 11:56:02 PM 37.6061 -122.3390 295° West 122 140 400 -720 Descending FlightAware ADS-B
Thu 11:56:16 PM 37.6098 -122.3480 297° West 127 146 200 -600 Descending FlightAware ADS-B
Thu 11:56:22 PM 37.6116 -122.3520 300° West 127 146 200  Level FlightAware ADS-B

Login

Don't have an account? Register now (free) for customized features, flight alerts, and more!